Time;durP1;ratioP1;P1;durP2;ratioP2;P2;SDS_P1;SDS_P2;PMS_P1;PMS_P2;Temp;Humidity;BMP_temperature;BMP_pressure;BME280_temperature;BME280_humidity;BME280_pressure;Samples;Min_cycle;Max_cycle;Signal;HPM_P1;HPM_P2
2023/08/18 00:01:38;;;;;;;3.83;3.50;;;22.40;99.90;;;;;;5036109;28;20490;-80
2023/08/18 00:04:05;;;;;;;4.47;4.07;;;22.40;99.90;;;;;;5034972;28;20476;-80
2023/08/18 00:06:32;;;;;;;5.30;3.80;;;22.40;99.90;;;;;;5035174;28;20775;-80
2023/08/18 00:08:59;;;;;;;9.00;4.40;;;22.40;99.90;;;;;;5034865;28;20868;-80
2023/08/18 00:11:26;;;;;;;6.10;5.07;;;22.40;99.90;;;;;;5034387;28;20469;-82
2023/08/18 00:13:53;;;;;;;4.47;4.07;;;22.40;99.90;;;;;;5034251;28;20970;-80
2023/08/18 00:16:20;;;;;;;4.80;4.27;;;22.40;99.90;;;;;;5034378;28;20511;-82
2023/08/18 00:18:48;;;;;;;5.57;4.03;;;22.30;99.90;;;;;;5034842;28;20471;-81
2023/08/18 00:21:15;;;;;;;4.83;4.30;;;22.30;99.90;;;;;;5034170;28;20503;-82
2023/08/18 00:23:44;;;;;;;5.17;4.77;;;22.30;99.90;;;;;;5034004;28;20496;-82
2023/08/18 00:26:11;;;;;;;5.40;4.90;;;22.30;99.90;;;;;;5033853;28;20471;-82
2023/08/18 00:28:38;;;;;;;4.70;4.40;;;22.20;99.90;;;;;;5033798;28;20551;-82
2023/08/18 00:31:05;;;;;;;5.73;4.70;;;22.30;99.90;;;;;;5033637;28;20468;-82
2023/08/18 00:33:32;;;;;;;8.10;4.70;;;22.30;99.90;;;;;;5034417;28;20473;-82
2023/08/18 00:36:00;;;;;;;5.73;4.90;;;22.20;99.90;;;;;;5034473;28;20476;-80
2023/08/18 00:38:27;;;;;;;4.67;4.27;;;22.20;99.90;;;;;;5034231;28;20787;-80
2023/08/18 00:41:01;;;;;;;6.70;5.10;;;22.20;99.90;;;;;;5034543;28;20469;-82
2023/08/18 00:43:39;;;;;;;5.70;5.23;;;22.30;99.90;;;;;;5033448;28;20468;-82
2023/08/18 00:46:08;;;;;;;5.50;5.07;;;22.20;99.90;;;;;;5033311;28;20468;-83
2023/08/18 00:48:35;;;;;;;5.70;5.20;;;22.20;99.90;;;;;;5034671;28;20492;-80
2023/08/18 00:51:06;;;;;;;7.90;5.40;;;22.30;99.90;;;;;;5034277;28;20555;-82
2023/08/18 00:53:33;;;;;;;6.40;5.90;;;22.30;99.90;;;;;;5034038;28;20875;-80
2023/08/18 00:56:01;;;;;;;6.17;5.63;;;22.30;99.90;;;;;;5033728;28;20476;-79
2023/08/18 00:58:29;;;;;;;7.17;6.57;;;22.30;99.90;;;;;;5033019;28;20547;-81
2023/08/18 01:00:56;;;;;;;6.10;5.60;;;22.40;99.90;;;;;;5034029;28;20472;-81
2023/08/18 01:03:24;;;;;;;9.33;5.33;;;22.40;99.90;;;;;;5033464;28;20495;-82
2023/08/18 01:05:53;;;;;;;10.20;6.33;;;22.40;99.90;;;;;;5034138;28;20850;-80
2023/08/18 01:08:21;;;;;;;5.40;5.00;;;22.40;99.90;;;;;;5033446;28;20894;-79
2023/08/18 01:10:56;;;;;;;6.73;6.13;;;22.40;99.90;;;;;;5032879;28;20821;-83
2023/08/18 01:13:32;;;;;;;6.80;6.10;;;22.40;99.90;;;;;;5033326;28;20476;-82
2023/08/18 01:16:03;;;;;;;7.00;6.30;;;22.40;99.90;;;;;;5033529;28;20487;-79
2023/08/18 01:18:30;;;;;;;7.00;6.30;;;22.40;99.90;;;;;;5033125;28;20468;-80
2023/08/18 01:21:05;;;;;;;6.10;5.70;;;22.50;99.90;;;;;;5033735;28;20878;-80
2023/08/18 01:23:43;;;;;;;7.70;6.93;;;22.50;99.90;;;;;;5033205;28;20478;-83
2023/08/18 01:26:09;;;;;;;7.33;6.83;;;22.50;99.90;;;;;;5033788;28;20468;-81
2023/08/18 01:28:37;;;;;;;7.57;6.97;;;22.50;99.90;;;;;;5033126;28;20484;-80
2023/08/18 01:31:11;;;;;;;6.87;6.37;;;22.50;99.90;;;;;;5033439;28;20477;-82
2023/08/18 01:33:42;;;;;;;7.13;6.53;;;22.50;99.90;;;;;;5033547;28;20916;-79
2023/08/18 01:36:17;;;;;;;6.83;6.30;;;22.50;99.90;;;;;;5033678;28;20554;-84
2023/08/18 01:38:46;;;;;;;7.00;6.50;;;22.50;99.90;;;;;;5036729;28;20894;-81
2023/08/18 01:41:16;;;;;;;6.77;6.10;;;22.50;99.90;;;;;;5035041;28;20483;-81
2023/08/18 01:43:43;;;;;;;6.93;6.43;;;22.50;99.90;;;;;;5034305;28;20453;-82
2023/08/18 01:46:10;;;;;;;7.27;6.57;;;22.50;99.90;;;;;;5038461;28;20537;-81
2023/08/18 01:48:37;;;;;;;6.17;5.67;;;22.50;99.90;;;;;;5033791;28;21006;-80
2023/08/18 01:51:04;;;;;;;7.73;6.73;;;22.50;99.90;;;;;;5033545;28;20494;-82
2023/08/18 01:53:34;;;;;;;6.20;5.60;;;22.50;99.90;;;;;;5032684;28;21000;-81
2023/08/18 01:56:03;;;;;;;6.23;5.73;;;22.40;99.90;;;;;;5032831;28;20526;-82
2023/08/18 01:58:30;;;;;;;6.57;6.07;;;22.50;99.90;;;;;;5032914;28;20476;-82
2023/08/18 02:00:57;;;;;;;6.33;5.93;;;22.40;99.90;;;;;;5033318;28;20489;-82
2023/08/18 02:03:27;;;;;;;6.57;5.97;;;22.40;99.90;;;;;;5032764;28;20468;-80
2023/08/18 02:05:54;;;;;;;5.97;5.47;;;22.40;99.90;;;;;;5033445;28;20468;-82
2023/08/18 02:11:37;;;;;;;6.60;6.10;;;22.40;99.90;;;;;;5033475;28;21055;-80
2023/08/18 02:14:05;;;;;;;7.10;6.60;;;22.40;99.90;;;;;;5033595;28;20492;-81
2023/08/18 02:16:31;;;;;;;7.20;6.60;;;22.30;99.90;;;;;;5042412;28;20567;-82
2023/08/18 02:18:58;;;;;;;8.03;7.43;;;22.30;99.90;;;;;;5036481;28;20864;-80
2023/08/18 02:21:30;;;;;;;7.47;6.90;;;22.30;99.90;;;;;;5034056;28;20772;-80
2023/08/18 02:23:58;;;;;;;8.60;7.80;;;22.30;99.90;;;;;;5033820;28;20467;-83
2023/08/18 02:26:25;;;;;;;7.50;6.90;;;22.30;99.90;;;;;;5037951;28;20535;-82
2023/08/18 02:28:53;;;;;;;9.30;8.50;;;22.40;99.90;;;;;;5033623;28;20964;-82
2023/08/18 02:31:20;;;;;;;8.33;7.57;;;22.30;99.90;;;;;;5033368;28;20537;-80
2023/08/18 02:33:47;;;;;;;8.97;8.27;;;22.30;99.90;;;;;;5034495;28;20464;-83
2023/08/18 02:36:14;;;;;;;9.67;8.73;;;22.30;99.90;;;;;;5039262;28;20468;-82
2023/08/18 02:38:41;;;;;;;11.60;10.73;;;22.30;99.90;;;;;;5033404;28;20479;-80
2023/08/18 02:41:08;;;;;;;13.27;12.20;;;22.30;99.90;;;;;;5031692;28;20472;-82
2023/08/18 02:43:35;;;;;;;11.63;10.63;;;22.30;99.90;;;;;;5035824;28;20444;-82
2023/08/18 02:46:03;;;;;;;11.57;10.70;;;22.30;99.90;;;;;;5033572;28;20475;-80
2023/08/18 02:48:31;;;;;;;10.83;9.97;;;22.30;99.90;;;;;;5034942;28;20825;-83
2023/08/18 02:51:05;;;;;;;19.73;18.00;;;22.40;99.90;;;;;;5036757;28;20480;-82
2023/08/18 02:53:33;;;;;;;17.93;16.43;;;22.40;99.90;;;;;;5036048;28;20515;-80
2023/08/18 02:56:00;;;;;;;25.47;21.70;;;22.30;99.90;;;;;;5036323;28;21047;-80
2023/08/18 02:58:28;;;;;;;23.77;21.37;;;22.30;99.90;;;;;;5035949;28;20472;-80
2023/08/18 03:00:55;;;;;;;25.37;22.83;;;22.30;99.90;;;;;;5036402;28;20472;-82
2023/08/18 03:03:24;;;;;;;25.53;22.93;;;22.30;99.90;;;;;;5035805;28;20538;-82
2023/08/18 03:05:51;;;;;;;27.63;24.47;;;22.30;99.90;;;;;;5036327;28;20468;-82
2023/08/18 03:08:18;;;;;;;43.07;37.17;;;22.30;99.90;;;;;;5035566;28;20471;-80
2023/08/18 03:10:46;;;;;;;60.93;43.37;;;22.30;99.90;;;;;;5036474;28;20796;-82
2023/08/18 03:13:14;;;;;;;59.57;44.10;;;22.30;99.90;;;;;;5036000;28;20884;-82
2023/08/18 03:15:41;;;;;;;57.67;44.10;;;22.30;99.90;;;;;;5036038;28;20464;-80
2023/08/18 03:18:08;;;;;;;52.07;41.33;;;22.30;99.90;;;;;;5035831;28;20861;-80
2023/08/18 03:20:36;;;;;;;69.17;49.27;;;22.30;99.90;;;;;;5035441;28;20464;-80
2023/08/18 03:23:04;;;;;;;74.53;54.13;;;22.30;99.90;;;;;;5035053;28;20544;-80
2023/08/18 03:25:31;;;;;;;74.67;56.43;;;22.30;99.90;;;;;;5034728;28;20455;-80
2023/08/18 03:28:07;;;;;;;90.40;60.40;;;22.30;99.90;;;;;;5035693;28;21035;-82
2023/08/18 03:30:37;;;;;;;85.00;58.47;;;22.30;99.90;;;;;;5035268;28;20474;-82
2023/08/18 03:33:07;;;;;;;105.87;71.83;;;22.30;99.90;;;;;;5035554;28;20472;-83
2023/08/18 03:35:36;;;;;;;90.23;67.43;;;22.30;99.90;;;;;;5034629;28;20515;-83
2023/08/18 03:38:04;;;;;;;95.73;66.60;;;22.30;99.90;;;;;;5035713;28;20566;-81
2023/08/18 03:40:32;;;;;;;81.60;58.37;;;22.30;99.90;;;;;;5034616;28;20472;-83
2023/08/18 03:42:59;;;;;;;81.83;58.73;;;22.30;99.90;;;;;;5035601;28;20860;-83
2023/08/18 03:45:26;;;;;;;71.20;54.27;;;22.30;99.90;;;;;;5034009;28;20483;-81
2023/08/18 03:47:53;;;;;;;69.73;52.00;;;22.30;99.90;;;;;;5035739;28;20472;-80
2023/08/18 03:50:21;;;;;;;56.90;46.63;;;22.30;99.90;;;;;;5036055;28;20817;-82
2023/08/18 03:52:48;;;;;;;55.20;44.10;;;22.30;99.90;;;;;;5035746;28;20476;-82
2023/08/18 03:55:18;;;;;;;51.67;41.70;;;22.30;99.90;;;;;;5042096;28;20549;-80
2023/08/18 03:57:45;;;;;;;52.80;45.47;;;22.30;99.90;;;;;;5036676;28;20452;-80
2023/08/18 04:00:14;;;;;;;65.07;48.70;;;22.30;99.90;;;;;;5036301;28;20891;-80
2023/08/18 04:02:42;;;;;;;64.43;47.80;;;22.30;99.90;;;;;;5035770;28;20482;-80
2023/08/18 04:05:09;;;;;;;62.23;48.47;;;22.30;99.90;;;;;;5036452;28;20530;-80
2023/08/18 04:07:36;;;;;;;62.00;47.83;;;22.30;99.90;;;;;;5035259;28;20954;-80
2023/08/18 04:10:03;;;;;;;89.83;58.90;;;22.30;99.90;;;;;;5036145;28;20502;-80
2023/08/18 04:12:31;;;;;;;124.50;81.80;;;22.30;99.90;;;;;;5042097;28;20550;-80
2023/08/18 04:14:58;;;;;;;162.13;100.67;;;22.30;99.90;;;;;;5035445;28;20472;-82
2023/08/18 04:17:25;;;;;;;201.50;117.73;;;22.20;99.90;;;;;;5034898;28;20531;-80
2023/08/18 04:19:52;;;;;;;207.17;121.67;;;22.20;99.90;;;;;;5035171;28;20453;-82
2023/08/18 04:22:19;;;;;;;199.73;117.17;;;22.20;99.90;;;;;;5035721;28;20989;-82
2023/08/18 04:24:46;;;;;;;206.40;117.47;;;22.10;99.90;;;;;;5035092;28;20476;-83
2023/08/18 04:27:13;;;;;;;188.17;115.57;;;22.10;99.90;;;;;;5035088;28;20472;-82
2023/08/18 04:29:45;;;;;;;176.00;100.20;;;22.10;99.90;;;;;;5034093;28;20472;-82
2023/08/18 04:32:12;;;;;;;128.10;73.83;;;22.10;99.90;;;;;;5035093;28;21006;-80
2023/08/18 04:34:39;;;;;;;90.03;55.40;;;22.10;99.90;;;;;;5033783;28;20476;-80
2023/08/18 04:37:06;;;;;;;71.20;46.67;;;22.10;99.90;;;;;;5034727;28;20464;-82
2023/08/18 04:39:33;;;;;;;60.17;39.10;;;22.10;99.90;;;;;;5034436;28;20472;-79
2023/08/18 04:42:00;;;;;;;53.30;35.47;;;22.10;99.90;;;;;;5034885;28;20484;-82
2023/08/18 04:44:27;;;;;;;46.70;30.80;;;22.10;99.90;;;;;;5034773;28;20563;-81
2023/08/18 04:46:55;;;;;;;42.10;28.43;;;22.10;99.90;;;;;;5033610;28;20950;-79
2023/08/18 04:49:23;;;;;;;33.80;25.70;;;22.10;99.90;;;;;;5034368;28;20809;-82
2023/08/18 04:51:50;;;;;;;26.50;20.83;;;22.10;99.90;;;;;;5034395;28;20471;-79
2023/08/18 04:54:17;;;;;;;22.57;17.00;;;22.10;99.90;;;;;;5034286;28;20468;-79
2023/08/18 04:56:44;;;;;;;18.50;15.97;;;22.10;99.90;;;;;;5034228;28;20468;-82
2023/08/18 04:59:11;;;;;;;18.10;14.03;;;22.10;99.90;;;;;;5033608;28;20944;-80
2023/08/18 05:01:38;;;;;;;17.30;14.40;;;22.10;99.90;;;;;;5034126;28;20926;-79
2023/08/18 05:04:06;;;;;;;16.43;13.00;;;22.10;99.90;;;;;;5034821;28;20479;-79
2023/08/18 05:06:33;;;;;;;14.43;11.60;;;22.10;99.90;;;;;;5035365;28;20473;-81
2023/08/18 05:09:00;;;;;;;13.90;11.43;;;22.20;99.90;;;;;;5035465;28;20463;-79
2023/08/18 05:11:27;;;;;;;15.43;12.90;;;22.20;99.90;;;;;;5037360;28;20503;-79
2023/08/18 05:13:54;;;;;;;12.17;11.03;;;22.30;99.90;;;;;;5036218;28;20857;-81
2023/08/18 05:16:21;;;;;;;15.03;12.27;;;22.30;99.90;;;;;;5034791;28;20546;-81
2023/08/18 05:18:48;;;;;;;12.40;11.17;;;22.30;99.90;;;;;;5035664;28;20495;-81
2023/08/18 05:21:17;;;;;;;12.70;10.23;;;22.40;99.90;;;;;;5035247;28;20468;-79
2023/08/18 05:23:44;;;;;;;12.47;10.27;;;22.40;99.90;;;;;;5034263;28;20476;-79
2023/08/18 05:26:12;;;;;;;10.97;9.97;;;22.50;99.90;;;;;;5036812;28;20464;-81
2023/08/18 05:28:39;;;;;;;11.73;10.60;;;22.50;99.90;;;;;;5034594;28;20539;-83
2023/08/18 05:31:08;;;;;;;10.47;9.20;;;22.50;99.90;;;;;;5034783;28;20864;-82
2023/08/18 05:33:35;;;;;;;11.60;10.60;;;22.50;99.90;;;;;;5035132;28;20861;-80
2023/08/18 05:36:05;;;;;;;11.03;8.93;;;22.50;99.90;;;;;;5034396;28;20492;-80
2023/08/18 05:38:34;;;;;;;10.63;8.90;;;22.60;99.90;;;;;;5025921;28;20470;-82
2023/08/18 05:41:06;;;;;;;12.20;10.43;;;22.60;99.90;;;;;;5034002;28;21016;-80
2023/08/18 05:43:35;;;;;;;10.97;9.93;;;22.60;99.90;;;;;;5035255;28;20548;-82
2023/08/18 05:46:03;;;;;;;10.47;9.33;;;22.70;99.90;;;;;;5034142;28;20560;-81
2023/08/18 05:48:30;;;;;;;10.27;9.00;;;22.70;99.90;;;;;;5033300;28;20535;-79
2023/08/18 05:50:57;;;;;;;11.27;9.83;;;22.70;99.90;;;;;;5032333;28;20483;-80
2023/08/18 05:53:24;;;;;;;11.93;10.60;;;22.80;99.90;;;;;;5033927;28;20475;-82
2023/08/18 05:55:53;;;;;;;12.27;11.07;;;22.80;99.90;;;;;;5032334;28;20479;-81
2023/08/18 05:58:20;;;;;;;11.80;10.60;;;22.80;99.90;;;;;;5033790;28;20488;-82
2023/08/18 06:00:50;;;;;;;14.33;11.17;;;22.80;99.90;;;;;;5033270;28;20499;-80
2023/08/18 06:03:19;;;;;;;13.07;10.57;;;22.90;99.90;;;;;;5032226;28;20452;-81
2023/08/18 06:05:46;;;;;;;10.97;9.50;;;23.00;99.90;;;;;;5033131;28;20530;-80
2023/08/18 06:08:13;;;;;;;9.83;8.83;;;23.00;99.90;;;;;;5032843;28;20468;-81
2023/08/18 06:10:41;;;;;;;9.23;8.43;;;23.10;99.90;;;;;;5033334;28;20975;-81
2023/08/18 06:13:09;;;;;;;11.67;9.57;;;23.10;99.90;;;;;;5032948;28;20476;-81
2023/08/18 06:15:37;;;;;;;11.53;10.33;;;23.20;99.90;;;;;;5033336;28;20985;-81
2023/08/18 06:18:04;;;;;;;11.00;10.00;;;23.20;99.90;;;;;;5033620;28;20498;-81
2023/08/18 06:20:31;;;;;;;11.73;9.93;;;23.30;99.90;;;;;;5035267;28;20471;-82
2023/08/18 06:22:58;;;;;;;10.37;9.37;;;23.40;99.90;;;;;;5042277;28;20475;-81
2023/08/18 06:25:25;;;;;;;9.60;8.90;;;23.40;99.90;;;;;;5038168;28;20466;-80
2023/08/18 06:27:52;;;;;;;10.13;9.23;;;23.50;99.90;;;;;;5038438;28;20478;-81
2023/08/18 06:30:21;;;;;;;10.00;9.17;;;23.50;99.90;;;;;;5029970;28;20969;-82
2023/08/18 06:32:48;;;;;;;11.20;10.17;;;23.60;99.90;;;;;;5050793;28;20884;-83
2023/08/18 06:35:18;;;;;;;9.13;8.43;;;23.60;99.90;;;;;;5037053;28;20480;-79
2023/08/18 06:37:48;;;;;;;9.77;8.77;;;23.70;99.90;;;;;;5036823;28;20531;-82
2023/08/18 06:40:15;;;;;;;11.30;10.23;;;23.80;99.90;;;;;;5037225;28;20472;-80
2023/08/18 06:42:42;;;;;;;9.10;8.50;;;23.70;99.90;;;;;;5031979;28;20576;-80
2023/08/18 06:45:10;;;;;;;9.77;8.97;;;23.80;99.90;;;;;;5048455;28;21028;-82
2023/08/18 06:47:38;;;;;;;15.13;10.57;;;23.90;99.90;;;;;;5037396;28;20510;-81
2023/08/18 06:50:09;;;;;;;9.63;8.73;;;23.90;99.90;;;;;;5036709;28;20472;-81
2023/08/18 06:52:36;;;;;;;10.57;9.57;;;24.00;99.90;;;;;;5036495;28;20471;-80
2023/08/18 06:55:04;;;;;;;9.37;8.57;;;24.00;99.90;;;;;;5037022;28;20476;-80
2023/08/18 06:57:31;;;;;;;10.87;9.97;;;24.00;99.90;;;;;;5035491;28;20961;-82
2023/08/18 06:59:58;;;;;;;11.43;10.47;;;24.10;99.90;;;;;;5037203;28;20854;-80
2023/08/18 07:02:26;;;;;;;9.87;9.00;;;24.10;99.90;;;;;;5036906;28;20533;-82
2023/08/18 07:04:54;;;;;;;9.87;8.97;;;24.20;99.90;;;;;;5039621;28;20475;-82
2023/08/18 07:07:22;;;;;;;11.80;10.73;;;24.20;99.90;;;;;;5036428;28;20467;-82
2023/08/18 07:09:51;;;;;;;13.50;12.20;;;24.30;99.90;;;;;;5027869;28;20464;-83
2023/08/18 07:12:19;;;;;;;11.00;10.00;;;24.30;99.90;;;;;;5035684;28;20506;-81
2023/08/18 07:14:46;;;;;;;10.30;9.20;;;24.40;99.90;;;;;;5036956;28;20529;-84
2023/08/18 07:17:15;;;;;;;9.40;8.60;;;24.40;99.90;;;;;;5035781;28;21109;-82
2023/08/18 07:19:48;;;;;;;9.60;8.80;;;24.50;99.90;;;;;;5036706;28;20550;-81
2023/08/18 07:22:16;;;;;;;10.87;9.93;;;24.50;99.90;;;;;;5036555;28;20472;-80
2023/08/18 07:24:43;;;;;;;10.53;9.43;;;24.60;99.90;;;;;;5038036;28;20977;-81
2023/08/18 07:27:10;;;;;;;10.60;9.70;;;24.70;99.90;;;;;;5037674;28;20501;-80
2023/08/18 07:29:37;;;;;;;10.67;9.67;;;24.70;99.90;;;;;;5043600;28;20483;-80
2023/08/18 07:32:04;;;;;;;10.50;9.57;;;24.80;99.90;;;;;;5040243;28;20476;-81
2023/08/18 07:34:31;;;;;;;10.73;9.63;;;24.90;99.90;;;;;;5041029;28;20463;-80
2023/08/18 07:36:58;;;;;;;11.40;10.60;;;24.90;99.90;;;;;;5037963;28;20527;-79
2023/08/18 07:39:30;;;;;;;10.90;9.97;;;25.00;99.90;;;;;;5036382;28;20480;-80
2023/08/18 07:41:57;;;;;;;10.50;9.67;;;25.10;99.90;;;;;;5041973;28;20467;-80
2023/08/18 07:44:24;;;;;;;11.13;10.03;;;25.20;99.90;;;;;;5028495;28;20535;-80
2023/08/18 07:46:51;;;;;;;10.27;9.47;;;25.20;99.90;;;;;;5036864;28;20831;-82
2023/08/18 07:49:18;;;;;;;10.13;9.27;;;25.30;99.90;;;;;;5037130;28;20472;-80
2023/08/18 07:51:45;;;;;;;9.37;8.77;;;25.30;99.90;;;;;;5042198;28;20457;-79
2023/08/18 07:54:12;;;;;;;9.70;8.83;;;25.40;99.90;;;;;;5038618;28;20523;-82
2023/08/18 07:56:40;;;;;;;8.80;8.00;;;25.40;99.90;;;;;;5020424;28;20480;-82
2023/08/18 07:59:09;;;;;;;8.20;7.60;;;25.50;99.90;;;;;;5038223;28;20523;-82
2023/08/18 08:01:39;;;;;;;9.10;8.50;;;25.60;99.90;;;;;;5035022;28;20464;-82
2023/08/18 08:04:06;;;;;;;8.30;7.50;;;25.70;99.90;;;;;;5041462;28;20492;-81
2023/08/18 08:06:35;;;;;;;8.27;7.47;;;25.70;99.90;;;;;;5039599;28;20473;-83
2023/08/18 08:09:03;;;;;;;8.50;7.90;;;25.80;99.90;;;;;;5039333;28;20460;-79
2023/08/18 08:11:30;;;;;;;8.83;8.13;;;25.80;99.90;;;;;;5037266;28;20497;-79
2023/08/18 08:13:58;;;;;;;9.43;8.63;;;25.80;99.90;;;;;;5037912;28;20467;-80
2023/08/18 08:16:25;;;;;;;11.23;10.13;;;25.90;99.90;;;;;;5037715;28;20472;-80
2023/08/18 08:18:52;;;;;;;9.20;8.50;;;25.90;99.90;;;;;;5039643;28;20467;-80
2023/08/18 08:21:21;;;;;;;7.40;6.80;;;26.00;99.90;;;;;;5037072;28;20473;-79
2023/08/18 08:23:48;;;;;;;8.03;7.33;;;26.00;99.90;;;;;;5035960;28;20475;-82
2023/08/18 08:26:15;;;;;;;8.07;7.47;;;26.00;99.90;;;;;;5041742;28;20493;-82
2023/08/18 08:28:45;;;;;;;8.83;8.10;;;26.00;99.90;;;;;;5043758;28;20974;-82
2023/08/18 08:31:13;;;;;;;8.60;7.93;;;26.10;99.90;;;;;;5035621;28;20473;-82
2023/08/18 08:33:40;;;;;;;8.63;7.83;;;26.10;99.90;;;;;;5043442;28;20491;-82
2023/08/18 08:36:13;;;;;;;8.60;7.67;;;26.20;99.90;;;;;;5046849;28;20570;-82
2023/08/18 08:38:40;;;;;;;6.93;6.33;;;26.30;99.90;;;;;;5039124;28;20474;-82
2023/08/18 08:41:08;;;;;;;7.40;6.90;;;26.30;99.90;;;;;;5036147;28;20969;-82
2023/08/18 08:43:35;;;;;;;7.90;7.23;;;26.40;99.90;;;;;;5034771;28;20465;-80
2023/08/18 08:46:02;;;;;;;9.10;8.30;;;26.50;99.90;;;;;;5034263;28;20860;-80
2023/08/18 08:48:43;;;;;;;8.80;8.20;;;26.50;99.90;;;;;;5030658;28;20476;-82
2023/08/18 08:51:13;;;;;;;7.80;6.83;;;26.50;99.90;;;;;;5035389;28;20471;-83
2023/08/18 08:53:44;;;;;;;8.00;7.40;;;26.50;99.90;;;;;;5034612;28;20480;-83
2023/08/18 08:56:11;;;;;;;6.50;5.90;;;26.60;99.90;;;;;;5034930;28;20568;-82
2023/08/18 08:58:38;;;;;;;7.57;6.97;;;26.60;99.90;;;;;;5034555;28;20853;-83
2023/08/18 09:01:06;;;;;;;7.53;6.80;;;26.60;99.90;;;;;;5034428;28;20466;-81
2023/08/18 09:03:35;;;;;;;6.77;6.20;;;26.70;99.90;;;;;;5033580;28;21028;-82
2023/08/18 09:06:03;;;;;;;7.33;6.73;;;26.80;99.90;;;;;;5034441;28;20475;-82
2023/08/18 09:08:30;;;;;;;6.77;6.07;;;26.90;99.90;;;;;;5034169;28;20467;-81
2023/08/18 09:10:58;;;;;;;7.33;6.73;;;26.90;99.90;;;;;;5032641;28;20469;-81
2023/08/18 09:13:27;;;;;;;7.33;6.40;;;27.00;99.90;;;;;;5034007;28;20477;-82
2023/08/18 09:15:54;;;;;;;7.60;6.90;;;27.00;99.90;;;;;;5033191;28;20543;-83
2023/08/18 09:18:21;;;;;;;7.43;6.73;;;27.10;99.90;;;;;;5033941;28;20498;-81
2023/08/18 09:20:57;;;;;;;7.03;6.50;;;27.20;99.90;;;;;;5023816;28;20972;-80
2023/08/18 09:23:27;;;;;;;7.10;6.40;;;27.20;99.90;;;;;;5037983;28;20486;-82
2023/08/18 09:26:18;;;;;;;7.97;7.23;;;27.30;99.90;;;;;;5021729;28;21034;-83
2023/08/18 09:28:46;;;;;;;6.90;6.30;;;27.30;99.90;;;;;;5036098;28;20550;-82
2023/08/18 09:31:13;;;;;;;7.13;6.43;;;27.30;99.90;;;;;;5033455;28;20476;-81
2023/08/18 09:33:40;;;;;;;7.97;7.37;;;27.40;99.90;;;;;;5039553;28;21045;-82
2023/08/18 09:36:12;;;;;;;6.83;6.43;;;27.40;99.90;;;;;;5020150;28;20476;-82
2023/08/18 09:38:50;;;;;;;;;;;;;;;;;;;;;
2023/08/18 09:41:18;;;;;;;6.67;6.27;;;27.50;99.90;;;;;;5050240;28;20970;-80
2023/08/18 09:43:46;;;;;;;6.90;6.33;;;27.50;99.90;;;;;;5054252;28;20482;-81
2023/08/18 09:46:17;;;;;;;5.47;5.17;;;27.60;99.90;;;;;;5052926;28;21035;-82
2023/08/18 09:48:47;;;;;;;6.90;6.40;;;27.70;99.90;;;;;;5045608;28;20475;-82
2023/08/18 09:51:20;;;;;;;6.00;5.60;;;27.80;99.90;;;;;;5052689;28;20502;-82
2023/08/18 09:53:57;;;;;;;6.57;6.07;;;27.90;99.90;;;;;;5052999;28;20570;-80
2023/08/18 09:56:29;;;;;;;6.20;5.67;;;27.90;99.90;;;;;;5052900;28;20553;-83
2023/08/18 09:59:05;;;;;;;7.37;6.60;;;27.90;99.90;;;;;;5057647;28;20847;-83
2023/08/18 10:01:36;;;;;;;6.67;6.17;;;28.00;99.90;;;;;;5058437;28;20940;-82
2023/08/18 10:04:04;;;;;;;8.60;7.03;;;28.10;99.90;;;;;;5057371;28;20471;-82
2023/08/18 10:06:36;;;;;;;7.53;6.93;;;28.20;99.90;;;;;;5056756;28;20848;-82
2023/08/18 10:09:03;;;;;;;7.80;7.20;;;28.20;99.90;;;;;;5057644;28;20805;-82
2023/08/18 10:11:30;;;;;;;6.33;5.73;;;28.30;99.90;;;;;;5056876;28;20470;-81
2023/08/18 10:14:08;;;;;;;6.00;5.60;;;28.30;99.90;;;;;;5057986;28;20471;-79
2023/08/18 10:16:38;;;;;;;7.70;7.10;;;28.30;99.90;;;;;;5033207;28;20466;-81
2023/08/18 10:19:10;;;;;;;5.70;5.30;;;28.40;99.90;;;;;;5061005;28;20786;-81
2023/08/18 10:21:39;;;;;;;6.60;4.83;;;28.40;99.90;;;;;;5060237;28;20490;-81
2023/08/18 10:24:12;;;;;;;5.87;5.40;;;28.50;99.90;;;;;;5060283;28;20475;-80
2023/08/18 10:26:45;;;;;;;5.80;5.40;;;28.50;99.90;;;;;;5059237;28;20521;-81
2023/08/18 10:29:17;;;;;;;5.83;5.23;;;28.60;99.90;;;;;;5054984;28;20467;-85
2023/08/18 10:31:53;;;;;;;6.10;5.60;;;28.60;99.90;;;;;;5039701;28;20497;-83
2023/08/18 10:34:22;;;;;;;5.77;5.37;;;28.60;99.90;;;;;;5065718;28;20553;-83
2023/08/18 10:36:59;;;;;;;6.30;5.90;;;28.70;99.90;;;;;;5056959;28;20529;-81
2023/08/18 10:39:32;;;;;;;5.80;5.40;;;28.70;99.90;;;;;;5056799;28;20545;-83
2023/08/18 10:42:08;;;;;;;6.60;6.20;;;28.80;99.90;;;;;;5051102;28;20777;-83
2023/08/18 10:44:35;;;;;;;6.00;5.60;;;28.80;99.90;;;;;;5056180;28;20832;-82
2023/08/18 10:47:15;;;;;;;5.97;5.47;;;28.90;99.90;;;;;;5056788;28;20479;-83
2023/08/18 10:49:45;;;;;;;6.37;5.87;;;28.90;99.90;;;;;;5056453;28;20459;-82
2023/08/18 10:52:14;;;;;;;6.30;5.70;;;29.00;99.90;;;;;;5056068;28;20471;-81
2023/08/18 10:54:41;;;;;;;5.80;5.40;;;29.00;99.90;;;;;;5047509;28;20475;-81
2023/08/18 10:57:08;;;;;;;5.97;5.47;;;29.10;99.90;;;;;;5056690;28;20471;-81
2023/08/18 10:59:35;;;;;;;6.03;4.80;;;29.20;99.90;;;;;;5052369;28;20562;-83
2023/08/18 11:02:05;;;;;;;6.87;6.33;;;29.20;99.90;;;;;;5063931;28;20470;-82
2023/08/18 11:04:33;;;;;;;5.27;4.90;;;29.20;99.90;;;;;;5053304;28;20478;-83
2023/08/18 11:07:00;;;;;;;6.17;5.77;;;29.20;99.90;;;;;;5064411;28;20502;-83
2023/08/18 11:09:29;;;;;;;6.03;5.53;;;29.30;99.90;;;;;;5058942;28;20519;-81
2023/08/18 11:11:56;;;;;;;5.53;5.13;;;29.30;99.90;;;;;;5058459;28;20463;-83
2023/08/18 11:14:23;;;;;;;5.60;5.20;;;29.30;99.90;;;;;;5056023;28;20977;-80
2023/08/18 11:16:50;;;;;;;7.67;6.50;;;29.30;99.90;;;;;;5055585;28;20467;-80
2023/08/18 11:19:18;;;;;;;7.40;6.70;;;29.30;99.90;;;;;;5055692;28;20514;-80
2023/08/18 11:21:45;;;;;;;6.33;5.73;;;29.40;99.90;;;;;;5053747;28;20572;-80
2023/08/18 11:24:12;;;;;;;5.70;5.30;;;29.40;99.90;;;;;;5062903;28;20526;-81
2023/08/18 11:26:43;;;;;;;6.37;5.97;;;29.40;99.90;;;;;;5056180;28;20464;-82
2023/08/18 11:29:10;;;;;;;6.67;6.17;;;29.40;99.90;;;;;;5053720;28;20470;-82
2023/08/18 11:31:46;;;;;;;6.30;5.90;;;29.40;99.90;;;;;;5055192;28;20470;-83
2023/08/18 11:34:15;;;;;;;6.47;5.97;;;29.40;99.90;;;;;;5058771;28;20454;-81
2023/08/18 11:36:42;;;;;;;6.83;6.17;;;29.40;99.90;;;;;;5077408;28;20477;-83
2023/08/18 11:39:12;;;;;;;6.30;5.87;;;29.50;99.90;;;;;;5073968;28;20462;-82
2023/08/18 11:41:43;;;;;;;6.57;5.97;;;29.50;99.90;;;;;;5075467;28;20482;-85
2023/08/18 11:44:11;;;;;;;6.90;6.40;;;29.50;99.90;;;;;;5075952;28;20811;-83
2023/08/18 11:46:39;;;;;;;5.93;5.40;;;29.60;99.90;;;;;;5066066;28;20482;-82
2023/08/18 11:49:12;;;;;;;6.17;5.70;;;29.60;99.90;;;;;;5073917;28;20474;-82
2023/08/18 11:51:55;;;;;;;6.10;5.60;;;29.60;99.90;;;;;;5075756;28;20511;-80
2023/08/18 11:54:25;;;;;;;6.10;5.70;;;29.60;99.90;;;;;;5075524;28;20937;-81
2023/08/18 11:56:54;;;;;;;6.93;6.50;;;29.60;99.90;;;;;;5079962;28;20515;-81
2023/08/18 11:59:22;;;;;;;6.33;5.73;;;29.70;99.90;;;;;;5079633;28;20928;-83
2023/08/18 12:01:54;;;;;;;6.53;6.03;;;29.70;99.90;;;;;;5080910;28;20527;-83
2023/08/18 12:04:24;;;;;;;7.30;6.60;;;29.70;99.90;;;;;;5075191;28;20450;-81
2023/08/18 12:06:51;;;;;;;7.20;6.57;;;29.70;99.90;;;;;;5075089;28;20470;-81
2023/08/18 12:09:19;;;;;;;8.07;7.37;;;29.70;99.90;;;;;;5074704;28;20457;-83
2023/08/18 12:11:46;;;;;;;8.30;7.70;;;29.70;99.90;;;;;;5075239;28;20463;-81
2023/08/18 12:14:17;;;;;;;8.53;7.73;;;29.70;99.90;;;;;;5066054;28;20474;-81
2023/08/18 12:16:46;;;;;;;7.47;6.97;;;29.70;99.90;;;;;;5077224;28;20474;-81
2023/08/18 12:19:13;;;;;;;7.87;7.37;;;29.70;99.90;;;;;;5075790;28;20467;-83
2023/08/18 12:21:41;;;;;;;7.87;7.23;;;29.70;99.90;;;;;;5075011;28;20527;-84
2023/08/18 12:24:09;;;;;;;7.57;7.07;;;29.70;99.90;;;;;;5076924;28;20906;-83
2023/08/18 12:26:37;;;;;;;7.60;7.10;;;29.70;99.90;;;;;;5076091;28;20978;-83
2023/08/18 12:29:04;;;;;;;7.00;6.47;;;29.70;99.90;;;;;;5074196;28;20471;-83
2023/08/18 12:31:33;;;;;;;8.03;7.47;;;29.70;99.90;;;;;;5074859;28;20474;-84
2023/08/18 12:34:05;;;;;;;7.80;7.20;;;29.70;99.90;;;;;;5065788;28;20512;-82
2023/08/18 12:36:35;;;;;;;7.60;6.87;;;29.70;99.90;;;;;;5061870;28;20500;-80
2023/08/18 12:39:07;;;;;;;7.30;6.80;;;29.80;99.90;;;;;;5053860;28;21055;-82
2023/08/18 12:41:35;;;;;;;9.90;7.33;;;29.80;99.90;;;;;;5054406;28;20458;-80
2023/08/18 12:44:02;;;;;;;7.53;6.93;;;29.80;99.90;;;;;;5056419;28;20522;-82
2023/08/18 12:46:30;;;;;;;7.63;6.93;;;29.70;99.90;;;;;;5054332;28;20477;-82
2023/08/18 12:48:58;;;;;;;8.63;7.83;;;29.80;99.90;;;;;;5055040;28;20471;-83
2023/08/18 12:51:28;;;;;;;9.43;7.33;;;29.80;99.90;;;;;;5055307;28;20482;-83